Relevés horaires Cimetta (Suisse)


Relevés horaires à Cimetta - Jeudi 20 Sept. 2018
Heure UTC1 Température [°C] Vent [km/h] Hum. [%] Pres.4 [hPa] Visi. [Km] Nébu. [octa] Préc.5 [mm] Cond.
2m. Res. Ros. Dir.2 Vit. Moy. Raf.3
23:00 12.9 12.9 12.0 NE 1.9 -- -- 94 850 -- -- -- --
22:00 12.9 12.9 11.8 E 3.7 -- -- 93 850 -- -- -- --
21:00 12.9 12.9 11.9 ENE 3.7 -- 13.0 94 850(0.1/3h) -- -- -- --
20:00 13.7 13.7 11.6 S 1.9 -- -- 87 850 -- -- -- --
19:00 14.0 14.0 10.2 SO 5.6 -- -- 78 850 -- -- -- --
18:00 13.2 12.6 11.8 SO 9.3 -- 18.5 91 850(-0.1/3h) -- -- 0/12h
--
17:00 14.3 13.6 10.7 SO 11.1 -- -- 79 850 -- -- -- --
16:00 14.8 14.2 11.8 SO 11.1 -- -- 82 850 -- -- -- --
15:00 16.0 15.9 10.4 SSO 9.3 -- 18.5 69 850(-1.0/3h) -- -- -- --
14:00 16.6 16.6 12.2 SSO 9.3 -- -- 75 850 -- -- -- --
13:00 18.1 18.1 10.3 S 7.4 -- -- 60 850 -- -- -- --
12:00 17.6 17.6 12.5 S 9.3 -- 18.5 72 850(-0.4/3h) -- -- 0/6h
--
11:00 16.7 16.7 10.5 SSO 5.6 -- -- 67 850 -- -- -- --
10:00 17.3 17.3 12.0 SSE 3.7 -- -- 71 850 -- -- -- --
09:00 16.2 16.2 12.3 SSE 1.9 -- 7.4 78 850(0.4/3h) -- -- -- --
08:00 15.6 15.6 12.2 ENE 1.9 -- -- 80 850 -- -- -- --
07:00 15.1 15.1 11.8 NNE 3.7 -- -- 81 850 -- -- -- --
06:00 14.0 14.0 8.0 O 1.9 -- 5.6 67 850(0.0/3h) -- -- 0/12h
0/24h
--
05:00 13.1 13.1 8.8 O 1.9 -- -- 75 850 -- -- -- --
04:00 13.5 13.5 7.2 ONO 1.9 -- -- 66 850 -- -- -- --
03:00 13.5 13.5 8.7 SO 3.7 -- 5.6 73 850(-0.6/3h) -- -- -- --
02:00 13.7 13.7 8.1 SSO 1.9 -- -- 69 850 -- -- -- --
01:00 14.1 14.1 8.4 OSO 5.6 -- -- 69 850 -- -- -- --
00:00 13.6 13.6 11.3 NE 1.9 -- 7.4 86 850(-0.4/3h) -- -- 0/6h
--

1 Coordinated Universal Time. Actuellement il est 21:00 locale et 19:00 UTC.

2 Le vent souffle depuis la direction indiquée vers la direction oposée.

3 Les rafales max. sont disponible 40 min après l'heure du relevé.

4 Pour les stations d'altitude (plus de 600m) le géopotentiel du niveau le plus proche de la pression obligatoire est indiqué.

5 Les stations disposant d'un diffuseur peuvent indiquer "trace". Cela signifie que des précipitations ont touchés le sol mais que la quantité est inférieure à 0.1 mm.

Récapitulatif de la journée
Température [°C] Vent [km/h] Ensoleillement4 [h] Precipitations totale5 [mm] Pression [Hpa]
Min1 Max.2 Moy.3 Max. Min Max.
13.1 18.5 0 18.5 11 h 42 min 0.3 850.0 850.0

1 Température minimale relevée entre 18:00 UTC la veille et 18:00 UTC le jour donné.

2 Température maximale relevée entre 06:00 UTC le jour donné et 06:00 UTC le lendemain.

3 Vent moyen de la journée basé sur les relevés horaires.

4 Ensoleillement en heures relevé entre 06:00 UTC la veille et 06:00 UTC le jour donné.

5 Précipitations totales tombées entre 06:00 UTC la jour donné et 06:00 UTC le lendemain.

Graphiques horaires